Time;durP1;ratioP1;P1;durP2;ratioP2;P2;SDS_P1;SDS_P2;PMS_P1;PMS_P2;Temp;Humidity;BMP_temperature;BMP_pressure;BME280_temperature;BME280_humidity;BME280_pressure;Samples;Min_cycle;Max_cycle;Signal;HPM_P1;HPM_P2
2021/12/07 00:00:46;;;;;;;5.55;2.75;;;4.20;99.90;;;3.93;98.60;99836.84;5208191;28;20045;-72
2021/12/07 00:03:20;;;;;;;7.53;2.95;;;4.20;99.90;;;3.97;97.81;99835.28;5207160;28;20050;-74
2021/12/07 00:05:52;;;;;;;5.82;2.83;;;4.30;99.90;;;4.08;97.13;99841.81;5207385;28;20042;-73
2021/12/07 00:08:27;;;;;;;5.25;2.30;;;4.30;99.90;;;4.04;96.81;99843.38;5207615;28;20050;-73
2021/12/07 00:10:59;;;;;;;5.43;2.95;;;4.30;99.90;;;4.16;97.07;99839.56;5208427;28;20095;-74
2021/12/07 00:13:36;;;;;;;4.88;2.38;;;4.40;99.90;;;4.19;97.41;99848.34;5207653;28;20537;-72
2021/12/07 00:16:11;;;;;;;6.68;2.42;;;4.40;99.90;;;4.35;97.22;99853.34;5207695;28;20061;-72
2021/12/07 00:18:44;;;;;;;5.75;2.35;;;4.50;99.90;;;4.33;96.95;99861.84;5207382;28;20050;-71
2021/12/07 00:21:18;;;;;;;4.18;2.28;;;4.50;99.90;;;4.36;97.28;99867.13;5206840;28;20053;-71
2021/12/07 00:23:51;;;;;;;2.85;1.45;;;4.60;99.90;;;4.41;97.35;99873.41;5207123;28;20053;-71
2021/12/07 00:26:24;;;;;;;1.20;0.98;;;4.60;99.90;;;4.43;97.32;99866.59;5207804;28;20041;-74
2021/12/07 00:28:58;;;;;;;1.90;0.88;;;4.60;99.90;;;4.46;97.52;99879.66;5207213;28;20053;-72
2021/12/07 00:31:37;;;;;;;1.42;0.82;;;4.70;99.90;;;4.52;97.37;99879.94;5207026;28;20049;-72
2021/12/07 00:34:18;;;;;;;2.42;1.65;;;4.70;99.90;;;4.44;96.70;99889.03;5217738;28;20672;-72
2021/12/07 00:36:50;;;;;;;1.50;0.90;;;4.70;99.90;;;4.41;96.25;99886.28;5225634;28;20072;-72
2021/12/07 00:39:26;;;;;;;1.10;0.90;;;4.70;99.90;;;4.35;96.72;99888.59;5224933;28;20041;-72
2021/12/07 00:41:58;;;;;;;3.20;0.93;;;4.60;99.90;;;4.31;96.83;99897.03;5226614;28;20071;-75
2021/12/07 00:44:30;;;;;;;1.83;0.90;;;4.60;99.90;;;4.29;96.53;99898.63;5226642;28;20049;-73
2021/12/07 00:47:03;;;;;;;1.55;0.90;;;4.60;99.90;;;4.25;97.02;99904.50;5226864;28;20041;-72
2021/12/07 00:49:36;;;;;;;0.98;0.80;;;4.50;99.90;;;4.19;96.71;99906.78;5226683;28;20049;-72
2021/12/07 00:52:08;;;;;;;1.88;1.05;;;4.50;99.90;;;4.15;96.21;99910.91;5207967;28;20045;-72
2021/12/07 00:54:41;;;;;;;2.15;1.13;;;4.40;99.90;;;4.04;96.13;99918.16;5205318;28;20136;-73
2021/12/07 00:57:13;;;;;;;1.83;1.20;;;4.30;99.90;;;3.96;96.15;99919.47;5205872;28;20045;-71
2021/12/07 00:59:45;;;;;;;2.50;1.20;;;4.30;99.90;;;3.90;96.32;99921.78;5205500;28;20041;-71
2021/12/07 01:02:17;;;;;;;1.70;1.20;;;4.20;99.90;;;3.88;96.49;99936.28;5205852;28;20049;-73
2021/12/07 01:04:57;;;;;;;1.23;1.13;;;4.20;99.90;;;3.83;96.24;99924.00;5205336;28;20053;-72
2021/12/07 01:07:51;;;;;;;2.42;1.30;;;4.10;99.90;;;3.76;96.20;99926.28;5206165;28;20140;-72
2021/12/07 01:24:42;;;;;;;2.08;1.50;;;3.80;99.90;;;3.58;96.20;99929.66;5205129;28;20064;-73
2021/12/07 01:27:17;;;;;;;4.65;1.40;;;3.80;99.90;;;3.57;96.36;99933.03;5213750;28;20041;-74
2021/12/07 01:30:02;;;;;;;;;;;3.80;99.90;;;3.58;96.44;99945.13;5225949;28;20072;-74
2021/12/07 01:32:49;;;;;;;2.45;1.70;;;3.80;99.90;;;3.55;96.74;99940.72;5214579;28;19921;-72
2021/12/07 01:38:38;;;;;;;3.17;1.75;;;3.80;99.90;;;3.52;97.09;99949.19;5207739;28;20041;-72
2021/12/07 01:41:21;;;;;;;3.15;1.50;;;3.80;99.90;;;3.51;97.24;99955.13;5205096;28;20053;-72
2021/12/07 01:47:20;;;;;;;2.97;1.90;;;3.80;99.90;;;3.59;97.73;99957.22;5194547;28;20045;-73
2021/12/07 01:50:16;;;;;;;4.15;1.85;;;3.80;99.90;;;3.61;98.04;99965.91;5205889;28;20045;-73
2021/12/07 01:53:03;;;;;;;3.38;2.00;;;3.90;99.90;;;3.65;98.21;99965.22;5205359;28;20517;-71
2021/12/07 02:01:17;;;;;;;5.57;2.50;;;4.00;99.90;;;3.89;99.20;99981.00;5205025;28;20140;-72
2021/12/07 02:03:49;;;;;;;7.03;3.78;;;4.10;99.90;;;3.94;99.95;99972.69;5205101;28;20049;-72
2021/12/07 02:06:21;;;;;;;10.38;3.90;;;4.10;99.90;;;4.04;100.00;99969.75;5205139;28;20050;-72
2021/12/07 02:08:53;;;;;;;9.98;3.05;;;4.20;99.90;;;4.18;100.00;99977.25;5205285;28;20049;-72
2021/12/07 02:11:26;;;;;;;11.43;5.22;;;4.40;99.90;;;4.36;100.00;99980.66;5204746;28;20049;-72
2021/12/07 02:14:16;;;;;;;8.70;3.92;;;4.50;99.90;;;4.41;100.00;99981.78;5204752;28;20139;-72
2021/12/07 02:16:51;;;;;;;7.30;2.97;;;4.60;99.90;;;4.53;100.00;99991.78;5204850;28;20486;-72
2021/12/07 02:19:25;;;;;;;12.00;5.00;;;4.80;99.90;;;4.55;100.00;99979.81;5205248;28;20100;-72
2021/12/07 02:21:59;;;;;;;7.28;3.40;;;4.80;99.90;;;4.60;100.00;99999.88;5204539;28;20060;-73
2021/12/07 02:24:32;;;;;;;7.00;3.40;;;4.90;99.90;;;4.71;100.00;99994.31;5204909;28;20494;-72
2021/12/07 02:27:05;;;;;;;6.75;3.03;;;4.90;99.90;;;4.72;100.00;99998.69;5204745;28;20067;-72
2021/12/07 02:29:37;;;;;;;8.32;2.58;;;4.90;99.90;;;4.80;100.00;100007.63;5204992;28;20050;-74
2021/12/07 02:32:10;;;;;;;6.60;2.55;;;5.00;99.90;;;4.80;100.00;100007.63;5204524;28;20049;-72
2021/12/07 02:34:53;;;;;;;8.48;2.83;;;5.00;99.90;;;4.92;100.00;100005.63;5204468;28;20049;-72
2021/12/07 02:37:29;;;;;;;6.25;3.20;;;5.10;99.90;;;4.95;100.00;100018.66;5204714;28;20482;-73
2021/12/07 02:40:03;;;;;;;5.53;2.35;;;5.20;99.90;;;4.93;100.00;100022.88;5204736;28;20049;-74
2021/12/07 02:42:36;;;;;;;12.07;3.30;;;5.20;99.90;;;4.95;100.00;100033.25;5204473;28;20045;-73
2021/12/07 02:45:09;;;;;;;10.77;3.13;;;5.20;99.90;;;4.97;100.00;100029.06;5204272;28;20305;-72
2021/12/07 02:47:41;;;;;;;9.52;3.30;;;5.20;99.90;;;5.04;100.00;100038.84;5204574;28;20053;-73
2021/12/07 02:50:16;;;;;;;9.57;3.08;;;5.20;99.90;;;5.06;100.00;100044.97;5205721;28;20128;-72
2021/12/07 02:52:49;;;;;;;12.65;3.63;;;5.30;99.90;;;5.13;100.00;100049.59;5205582;28;20045;-74
2021/12/07 02:55:21;;;;;;;11.00;3.60;;;5.30;99.90;;;5.11;100.00;100044.38;5205433;28;20071;-72
2021/12/07 02:57:53;;;;;;;6.85;2.95;;;5.30;99.90;;;5.13;100.00;100055.63;5205583;28;20053;-72
2021/12/07 03:00:33;;;;;;;16.90;4.18;;;5.40;99.90;;;5.15;100.00;100056.63;5204690;28;20045;-72
2021/12/07 03:03:09;;;;;;;12.23;4.07;;;5.40;99.90;;;5.20;100.00;100067.13;5204522;28;20053;-71
2021/12/07 03:05:48;;;;;;;13.10;3.67;;;5.40;99.90;;;5.25;100.00;100075.09;5204606;28;20360;-72
2021/12/07 03:09:15;;;;;;;7.93;3.35;;;5.40;99.90;;;5.22;100.00;100080.16;5204353;28;20119;-72
2021/12/07 03:26:05;;;;;;;12.55;3.63;;;5.50;99.90;;;5.17;100.00;100124.72;5204280;28;20049;-73
2021/12/07 03:28:41;;;;;;;11.07;3.95;;;5.50;99.90;;;5.17;100.00;100127.31;5204080;28;20139;-71
2021/12/07 03:31:16;;;;;;;11.88;3.67;;;5.50;99.90;;;5.23;100.00;100116.38;5204858;28;20474;-71
2021/12/07 03:33:49;;;;;;;12.52;3.83;;;5.50;99.90;;;5.27;100.00;100131.19;5204125;28;20478;-72
2021/12/07 03:36:21;;;;;;;13.40;3.67;;;5.50;99.90;;;5.25;100.00;100137.13;5204293;28;20089;-73
2021/12/07 03:38:53;;;;;;;11.57;3.90;;;5.50;99.90;;;5.27;100.00;100138.06;5204068;28;20049;-74
2021/12/07 03:41:27;;;;;;;11.30;3.95;;;5.50;99.90;;;5.27;100.00;100146.69;5204560;28;20068;-72
2021/12/07 03:43:59;;;;;;;14.98;3.58;;;5.50;99.90;;;5.29;100.00;100144.19;5203759;28;20049;-72
2021/12/07 03:46:31;;;;;;;9.32;3.50;;;5.60;99.90;;;5.28;100.00;100150.16;5204501;28;20398;-72
2021/12/07 03:49:04;;;;;;;12.57;3.75;;;5.50;99.90;;;5.29;100.00;100151.97;5204169;28;20446;-74
2021/12/07 03:51:36;;;;;;;11.57;3.17;;;5.60;99.90;;;5.39;100.00;100152.41;5204278;28;20065;-71
2021/12/07 03:54:08;;;;;;;15.48;3.28;;;5.60;99.90;;;5.40;100.00;100163.63;5203768;28;20172;-72
2021/12/07 03:56:41;;;;;;;8.95;2.95;;;5.60;99.90;;;5.38;100.00;100162.69;5206316;28;20272;-71
2021/12/07 03:59:13;;;;;;;11.30;4.18;;;5.60;99.90;;;5.37;100.00;100169.56;5207531;28;20060;-74
2021/12/07 04:01:45;;;;;;;10.73;3.45;;;5.60;99.90;;;5.39;100.00;100177.38;5207515;28;20049;-72
2021/12/07 04:04:17;;;;;;;13.75;3.10;;;5.60;99.90;;;5.49;100.00;100189.91;5207194;28;20053;-71
2021/12/07 04:06:49;;;;;;;9.70;2.88;;;5.70;99.90;;;5.45;100.00;100173.38;5207804;28;20494;-72
2021/12/07 04:09:21;;;;;;;9.35;3.33;;;5.60;99.90;;;5.44;100.00;100191.41;5207845;28;20053;-72
2021/12/07 04:11:55;;;;;;;13.80;4.35;;;5.70;99.90;;;5.53;100.00;100196.97;5207742;28;20402;-73
2021/12/07 04:14:27;;;;;;;10.25;3.30;;;5.70;99.90;;;5.48;99.49;100192.41;5206748;28;20064;-72
2021/12/07 04:16:59;;;;;;;13.85;4.20;;;5.70;99.90;;;5.41;99.35;100204.19;5207361;28;20063;-74
2021/12/07 04:19:31;;;;;;;12.93;3.70;;;5.70;99.90;;;5.39;99.44;100205.81;5207201;28;20059;-73
2021/12/07 04:22:03;;;;;;;11.90;4.00;;;5.60;99.90;;;5.38;100.00;100212.69;5207365;28;20549;-73
2021/12/07 04:24:35;;;;;;;8.85;2.92;;;5.60;99.90;;;5.39;100.00;100210.97;5206926;28;20662;-74
2021/12/07 04:27:08;;;;;;;8.98;3.17;;;5.60;99.90;;;5.37;99.49;100210.03;5206902;28;20475;-73
2021/12/07 04:29:41;;;;;;;12.35;3.38;;;5.60;99.90;;;5.31;99.62;100220.09;5207115;28;20055;-73
2021/12/07 04:32:13;;;;;;;14.02;3.40;;;5.60;99.90;;;5.33;99.25;100233.97;5207149;28;20049;-72
2021/12/07 04:34:45;;;;;;;8.43;3.22;;;5.50;99.90;;;5.36;99.09;100227.25;5206731;28;20075;-73
2021/12/07 04:37:17;;;;;;;14.50;4.50;;;5.60;99.90;;;5.32;98.69;100227.03;5206806;28;20049;-72
2021/12/07 04:39:49;;;;;;;16.42;4.22;;;5.60;99.90;;;5.30;99.07;100239.00;5206679;28;20414;-73
2021/12/07 04:42:24;;;;;;;11.07;4.00;;;5.60;99.90;;;5.32;99.22;100247.69;5207153;28;20045;-72
2021/12/07 04:45:00;;;;;;;16.02;3.88;;;5.60;99.90;;;5.36;99.55;100247.94;5206516;28;20533;-74
2021/12/07 04:47:40;;;;;;;5.93;2.53;;;5.50;99.90;;;5.39;98.93;100244.59;5206992;28;20057;-74
2021/12/07 04:58:54;;;;;;;16.27;4.50;;;5.50;99.90;;;5.39;98.88;100268.72;5206615;28;20538;-73
2021/12/07 05:01:28;;;;;;;14.88;3.67;;;5.60;99.90;;;5.37;98.38;100266.91;5206799;28;20137;-72
2021/12/07 05:04:07;;;;;;;11.07;3.17;;;5.60;99.90;;;5.37;98.47;100274.66;5206473;28;20513;-73
2021/12/07 05:06:45;;;;;;;12.07;3.22;;;5.60;99.90;;;5.40;98.17;100273.06;5206064;28;20118;-74
2021/12/07 05:12:21;;;;;;;12.40;3.70;;;5.60;99.90;;;5.35;97.34;100281.47;5204322;28;20544;-72
2021/12/07 05:15:02;;;;;;;9.98;3.38;;;5.60;99.90;;;5.32;97.98;100283.88;5206494;28;20722;-73
2021/12/07 05:17:59;;;;;;;9.98;3.33;;;5.60;99.90;;;5.27;98.15;100303.44;5206238;28;20046;-73
2021/12/07 05:34:52;;;;;;;16.08;4.32;;;5.50;99.90;;;5.20;98.20;100309.13;5205667;28;20076;-74
2021/12/07 05:37:45;;;;;;;10.75;3.35;;;5.50;99.90;;;5.16;97.89;100313.28;5205778;28;20052;-72
2021/12/07 05:40:21;;;;;;;14.50;3.53;;;5.40;99.90;;;5.12;97.86;100321.69;5223627;23;20048;-72
2021/12/07 05:42:55;;;;;;;11.25;3.78;;;5.40;99.90;;;5.06;98.25;100319.69;5217380;28;20045;-72
2021/12/07 05:45:32;;;;;;;19.70;3.85;;;5.40;99.90;;;5.10;98.58;100313.88;5225511;28;20061;-72
2021/12/07 05:48:07;;;;;;;11.63;3.58;;;5.40;99.90;;;5.15;98.43;100319.22;5226606;28;20045;-72
2021/12/07 05:50:42;;;;;;;16.10;3.75;;;5.40;99.90;;;5.15;98.23;100326.97;5226018;28;20055;-71
2021/12/07 05:53:14;;;;;;;10.63;3.47;;;5.40;99.90;;;5.16;98.20;100324.50;5228080;28;20049;-71
2021/12/07 05:55:46;;;;;;;14.85;3.78;;;5.40;99.90;;;5.22;97.77;100339.44;5225729;28;20084;-72
2021/12/07 05:58:19;;;;;;;8.25;3.75;;;5.40;99.90;;;5.21;97.79;100347.97;5226028;28;20505;-72
2021/12/07 06:00:57;;;;;;;11.18;3.45;;;5.40;99.90;;;5.22;97.84;100348.88;5226065;28;20055;-72
2021/12/07 06:03:31;;;;;;;10.20;4.00;;;5.40;99.90;;;5.24;97.72;100360.16;5226560;28;20107;-72
2021/12/07 06:06:04;;;;;;;10.65;3.30;;;5.40;99.90;;;5.27;97.43;100352.53;5225648;28;20049;-71
2021/12/07 06:08:36;;;;;;;10.73;3.85;;;5.40;99.90;;;5.24;96.92;100371.38;5226058;28;20513;-73
2021/12/07 06:11:08;;;;;;;12.63;4.47;;;5.40;99.90;;;5.25;97.48;100372.28;5225939;28;20051;-73
2021/12/07 06:13:40;;;;;;;15.07;3.83;;;5.40;99.90;;;5.23;97.08;100379.06;5227209;28;20501;-72
2021/12/07 06:16:14;;;;;;;9.80;3.90;;;5.50;99.90;;;5.25;97.19;100395.53;5225509;28;20053;-71
2021/12/07 06:18:48;;;;;;;17.08;4.22;;;5.50;99.90;;;5.22;97.09;100408.31;5225125;28;20051;-74
2021/12/07 06:21:20;;;;;;;13.10;3.97;;;5.40;99.90;;;5.24;97.17;100401.50;5225187;28;20049;-72
2021/12/07 06:23:52;;;;;;;11.82;3.65;;;5.40;99.90;;;5.25;97.13;100411.03;5225097;28;20049;-72
2021/12/07 06:26:24;;;;;;;12.07;4.25;;;5.50;99.90;;;5.24;97.25;100393.75;5225972;28;20486;-73
2021/12/07 06:28:56;;;;;;;15.07;4.05;;;5.50;99.90;;;5.25;96.91;100416.19;5225801;28;20049;-72
2021/12/07 06:31:28;;;;;;;11.05;3.58;;;5.50;99.90;;;5.22;96.12;100410.91;5226768;28;20056;-71
2021/12/07 06:34:02;;;;;;;15.65;5.03;;;5.50;99.90;;;5.16;96.01;100411.47;5225056;28;20140;-72
2021/12/07 06:36:34;;;;;;;11.75;4.20;;;5.40;99.90;;;5.12;96.21;100427.63;5225458;28;20045;-72
2021/12/07 06:39:07;;;;;;;11.05;4.50;;;5.40;99.90;;;5.05;96.27;100422.94;5225245;28;20052;-71
2021/12/07 06:41:39;;;;;;;17.48;4.18;;;5.30;99.90;;;5.02;96.64;100423.69;5225552;28;20061;-73
2021/12/07 06:44:11;;;;;;;15.70;4.28;;;5.30;99.90;;;5.05;96.39;100422.94;5225020;28;20045;-72
2021/12/07 06:46:47;;;;;;;10.65;4.13;;;5.30;99.90;;;5.07;96.41;100427.38;5225580;28;20408;-72
2021/12/07 06:49:22;;;;;;;15.95;4.22;;;5.30;99.90;;;5.03;96.70;100427.16;5225369;28;20057;-74
2021/12/07 06:51:54;;;;;;;15.00;4.43;;;5.30;99.90;;;5.00;96.57;100430.47;5226645;28;20135;-74
2021/12/07 06:54:26;;;;;;;10.88;3.08;;;5.30;99.90;;;5.03;96.09;100422.88;5224854;28;20139;-72
2021/12/07 06:56:58;;;;;;;13.82;3.60;;;5.30;99.90;;;5.10;96.07;100431.81;5225604;28;20049;-72
2021/12/07 06:59:30;;;;;;;8.93;3.08;;;5.30;99.90;;;5.05;95.58;100436.75;5225176;28;20133;-72
2021/12/07 07:02:03;;;;;;;8.55;3.17;;;5.30;99.90;;;5.07;95.60;100437.72;5225849;28;20049;-73
2021/12/07 07:04:36;;;;;;;9.65;3.28;;;5.30;99.90;;;5.10;95.46;100422.38;5225361;28;20049;-74
2021/12/07 07:07:08;;;;;;;12.85;3.55;;;5.30;99.90;;;5.13;95.71;100445.78;5225844;28;20041;-73
2021/12/07 07:09:40;;;;;;;10.30;3.22;;;5.30;99.90;;;5.15;95.93;100426.09;5225717;28;20053;-73
2021/12/07 07:12:12;;;;;;;13.95;3.85;;;5.40;99.90;;;5.14;95.64;100439.78;5225228;28;20045;-72
2021/12/07 07:14:44;;;;;;;12.38;3.28;;;5.30;99.90;;;5.11;95.37;100442.22;5225531;28;20045;-74
2021/12/07 07:17:16;;;;;;;11.93;3.63;;;5.40;99.90;;;5.06;95.05;100437.63;5225419;28;20045;-71
2021/12/07 07:19:50;;;;;;;10.07;3.83;;;5.30;99.90;;;5.02;95.33;100439.19;5225742;28;20413;-71
2021/12/07 07:22:22;;;;;;;13.70;3.70;;;5.30;99.90;;;4.99;95.05;100454.53;5225471;28;20474;-73
2021/12/07 07:24:54;;;;;;;11.60;4.05;;;5.20;99.90;;;4.97;95.29;100450.97;5225579;28;20413;-75
2021/12/07 07:27:26;;;;;;;9.60;3.35;;;5.20;99.90;;;4.92;95.26;100457.59;5225509;28;20045;-74
2021/12/07 07:29:59;;;;;;;11.57;3.42;;;5.20;99.90;;;4.88;95.14;100458.22;5227180;28;20045;-74
2021/12/07 07:32:31;;;;;;;10.65;3.30;;;5.10;99.90;;;4.81;95.11;100458.72;5229418;28;20048;-73
2021/12/07 07:35:06;;;;;;;6.57;2.75;;;5.10;99.90;;;4.75;94.85;100464.44;5229212;28;20136;-74
2021/12/07 07:37:39;;;;;;;10.93;2.70;;;5.00;99.90;;;4.72;95.16;100468.59;5229054;28;20041;-72
2021/12/07 07:40:15;;;;;;;12.50;3.60;;;4.90;99.90;;;4.71;94.77;100461.66;5229070;28;20056;-75
2021/12/07 07:42:47;;;;;;;7.00;2.38;;;4.90;99.90;;;4.68;95.20;100476.97;5229405;28;20053;-76
2021/12/07 07:45:20;;;;;;;13.90;3.13;;;4.90;99.90;;;4.67;95.11;100481.25;5229149;28;20049;-71
2021/12/07 07:47:52;;;;;;;9.88;2.67;;;4.90;99.90;;;4.70;95.40;100478.84;5228942;28;20048;-71
2021/12/07 07:50:25;;;;;;;7.80;2.90;;;4.90;99.90;;;4.74;95.94;100474.72;5229304;28;20098;-73
2021/12/07 07:52:58;;;;;;;6.45;2.78;;;4.90;99.90;;;4.78;95.57;100474.97;5228976;28;20084;-75
2021/12/07 07:55:30;;;;;;;17.85;3.17;;;4.90;99.90;;;4.87;95.64;100479.72;5228696;28;20049;-73
2021/12/07 07:58:02;;;;;;;11.05;2.53;;;5.00;99.90;;;4.92;95.81;100475.69;5228861;28;20477;-75
2021/12/07 08:00:34;;;;;;;5.50;2.45;;;5.00;99.90;;;4.95;95.66;100473.25;5228763;28;20045;-73
2021/12/07 08:03:06;;;;;;;10.50;2.88;;;5.10;99.90;;;4.99;95.95;100475.19;5228650;28;20048;-74
2021/12/07 08:05:40;;;;;;;10.82;3.13;;;5.10;99.90;;;5.03;95.98;100482.31;5229158;28;20041;-75
2021/12/07 08:08:12;;;;;;;12.35;2.50;;;5.20;99.90;;;5.08;95.81;100483.41;5228189;28;20051;-70
2021/12/07 08:10:44;;;;;;;9.93;2.80;;;5.20;99.90;;;5.16;96.00;100483.81;5228267;28;20059;-71
2021/12/07 08:13:18;;;;;;;8.48;2.80;;;5.30;99.90;;;5.22;95.95;100483.25;5228352;28;20401;-71
2021/12/07 08:15:50;;;;;;;7.13;2.28;;;5.30;99.90;;;5.27;96.07;100482.66;5228112;28;20162;-70
2021/12/07 08:18:22;;;;;;;10.30;3.00;;;5.40;99.90;;;5.32;95.34;100482.88;5227795;28;20486;-70
2021/12/07 08:20:56;;;;;;;7.47;2.08;;;5.40;99.90;;;5.37;96.03;100481.44;5210124;28;20050;-70
2021/12/07 08:23:28;;;;;;;7.85;2.38;;;5.50;99.90;;;5.38;95.72;100486.66;5193051;28;20058;-71
2021/12/07 08:26:00;;;;;;;7.85;2.38;;;5.50;99.90;;;5.40;95.40;100489.31;5186676;28;20570;-69
2021/12/07 08:28:32;;;;;;;7.28;2.25;;;5.50;99.90;;;5.38;94.82;100485.78;5186941;28;20054;-69
2021/12/07 08:31:05;;;;;;;10.80;2.42;;;5.50;99.90;;;5.56;96.69;100489.31;5186266;28;20046;-72
2021/12/07 08:33:37;;;;;;;9.65;2.15;;;5.70;99.90;;;5.58;95.54;100497.13;5186498;28;20054;-72
2021/12/07 08:36:11;;;;;;;9.18;1.92;;;5.70;99.90;;;5.61;94.58;100499.88;5186351;28;20058;-73
2021/12/07 08:38:43;;;;;;;11.90;2.20;;;5.80;99.90;;;5.64;94.20;100490.56;5185627;28;20050;-72
2021/12/07 08:41:16;;;;;;;14.40;2.47;;;5.80;99.90;;;5.65;93.72;100494.91;5185846;28;20050;-72
2021/12/07 08:43:48;;;;;;;10.90;2.45;;;5.80;99.90;;;5.70;93.30;100506.38;5186285;28;20045;-71
2021/12/07 08:46:21;;;;;;;11.55;2.60;;;5.80;99.90;;;5.80;92.84;100506.81;5186762;28;20148;-73
2021/12/07 08:48:53;;;;;;;11.57;2.20;;;5.90;99.90;;;5.87;92.47;100507.22;5187046;28;20046;-73
2021/12/07 08:51:26;;;;;;;7.95;1.85;;;5.90;99.90;;;5.97;91.54;100506.00;5186538;28;20108;-70
2021/12/07 08:54:15;;;;;;;7.40;2.38;;;6.00;99.90;;;6.04;91.04;100515.81;5186413;28;20483;-71
2021/12/07 08:59:44;;;;;;;6.00;2.55;;;6.10;99.90;;;6.06;87.47;100527.13;5186439;28;20057;-70
2021/12/07 09:02:19;;;;;;;6.55;2.13;;;6.10;99.90;;;6.08;87.87;100534.97;5186824;28;20050;-68
2021/12/07 09:04:53;;;;;;;16.08;2.58;;;6.10;99.90;;;6.10;88.38;100536.81;5186048;28;20054;-69
2021/12/07 09:07:27;;;;;;;10.85;2.80;;;6.10;99.90;;;6.12;88.41;100531.72;5186105;28;20073;-71
2021/12/07 09:09:59;;;;;;;10.43;2.75;;;6.10;99.90;;;6.10;87.95;100526.47;5186255;28;20064;-70
2021/12/07 09:12:31;;;;;;;7.68;2.67;;;6.10;99.90;;;6.11;87.92;100536.00;5186298;28;20050;-69
2021/12/07 09:15:04;;;;;;;7.72;2.35;;;6.10;99.90;;;6.13;86.75;100528.31;5185566;28;20054;-68
2021/12/07 09:17:36;;;;;;;9.32;2.83;;;6.10;99.90;;;6.13;86.75;100529.22;5186317;28;20062;-69
2021/12/07 09:20:15;;;;;;;8.00;2.30;;;6.10;99.90;;;6.18;86.48;100530.31;5186147;28;20057;-68
2021/12/07 09:22:49;;;;;;;9.90;3.03;;;6.10;99.90;;;6.20;86.06;100528.69;5185838;28;20046;-68
2021/12/07 09:25:22;;;;;;;9.40;1.88;;;6.20;99.90;;;6.19;85.93;100538.97;5185669;28;20494;-68
2021/12/07 09:27:54;;;;;;;7.03;2.20;;;6.20;99.90;;;6.20;85.85;100552.00;5186004;28;20497;-71
2021/12/07 09:30:26;;;;;;;5.72;2.13;;;6.20;99.90;;;6.21;85.49;100546.00;5185822;28;20060;-69
2021/12/07 09:32:58;;;;;;;9.63;2.80;;;6.20;99.90;;;6.28;86.28;100548.88;5185831;28;20407;-68
2021/12/07 09:35:31;;;;;;;10.15;2.78;;;6.20;99.90;;;6.38;85.98;100544.19;5185588;28;20060;-72
2021/12/07 09:38:05;;;;;;;9.90;2.92;;;6.30;99.90;;;7.07;97.29;100545.69;5185769;28;20054;-69
2021/12/07 09:40:36;;;;;;;7.22;2.10;;;6.90;99.90;;;7.09;90.50;100545.75;5185891;28;20077;-68
2021/12/07 09:43:09;;;;;;;13.70;2.10;;;7.10;99.90;;;7.01;87.88;100539.34;5185978;28;20077;-70
2021/12/07 09:45:44;;;;;;;7.45;2.25;;;7.10;99.90;;;6.96;87.20;100533.06;5193202;28;20058;-70
2021/12/07 09:48:17;;;;;;;9.07;2.10;;;7.00;99.90;;;6.92;86.49;100536.34;5204730;28;20049;-69
2021/12/07 09:50:55;;;;;;;4.28;1.65;;;7.00;99.90;;;6.95;85.75;100539.06;5205873;28;20053;-68
2021/12/07 09:53:29;;;;;;;4.03;1.88;;;7.00;99.90;;;7.00;85.81;100546.22;5205650;28;20061;-67
2021/12/07 09:56:04;;;;;;;6.45;2.13;;;6.90;99.90;;;7.08;85.23;100533.63;5205626;28;20057;-68
2021/12/07 09:58:37;;;;;;;9.20;1.77;;;7.00;99.90;;;7.15;84.53;100533.06;5205584;28;20054;-70
2021/12/07 10:01:10;;;;;;;6.32;1.95;;;7.10;99.90;;;7.23;83.53;100529.09;5205665;28;20049;-68
2021/12/07 10:03:43;;;;;;;5.40;1.77;;;7.10;99.90;;;7.29;82.30;100529.38;5204969;28;20045;-68
2021/12/07 10:06:15;;;;;;;3.58;1.58;;;7.10;99.90;;;7.35;82.26;100526.16;5205825;28;20049;-69
2021/12/07 10:08:49;;;;;;;3.58;1.33;;;7.20;99.90;;;7.45;82.03;100519.69;5205081;28;20045;-70
2021/12/07 10:11:21;;;;;;;6.88;1.45;;;7.20;99.90;;;7.62;81.43;100521.25;5205772;28;20053;-68
2021/12/07 10:13:54;;;;;;;2.47;1.05;;;7.40;99.90;;;7.73;80.84;100516.53;5205679;28;20073;-68
2021/12/07 10:16:26;;;;;;;4.45;1.35;;;7.50;99.90;;;7.84;80.03;100515.28;5205695;28;20379;-68
2021/12/07 10:18:59;;;;;;;4.65;1.85;;;7.60;99.90;;;7.88;79.94;100502.47;5205621;28;20405;-69
2021/12/07 10:21:39;;;;;;;5.78;1.23;;;7.70;99.90;;;7.93;79.04;100499.19;5205197;28;20049;-68
2021/12/07 10:24:21;;;;;;;6.03;1.25;;;7.70;99.90;;;8.01;79.01;100493.47;5206004;28;20573;-68
2021/12/07 10:26:53;;;;;;;;;;;7.80;99.90;;;8.06;78.02;100501.44;5205185;28;20053;-69
2021/12/07 10:29:27;;;;;;;4.07;1.55;;;7.90;99.90;;;8.16;74.13;100493.22;5199582;28;19922;-67
2021/12/07 10:32:04;;;;;;;4.20;1.35;;;8.00;99.90;;;8.14;74.79;100492.25;5184152;28;20056;-68
2021/12/07 10:34:41;;;;;;;3.90;1.30;;;8.00;99.90;;;8.19;75.60;100493.31;5184912;28;20091;-68
2021/12/07 10:37:17;;;;;;;4.07;1.27;;;8.00;99.90;;;8.29;75.44;100485.06;5184835;28;20141;-68
2021/12/07 10:39:53;;;;;;;4.35;1.30;;;8.10;99.90;;;8.39;75.12;100475.94;5184481;28;20046;-72
2021/12/07 10:42:31;;;;;;;5.70;1.10;;;8.20;99.90;;;8.51;72.99;100483.31;5183609;28;20129;-68
2021/12/07 10:45:08;;;;;;;1.85;1.13;;;8.30;99.90;;;8.48;71.35;100485.81;5184097;28;20056;-68
2021/12/07 10:47:40;;;;;;;6.75;1.73;;;8.30;99.90;;;8.46;71.88;100483.13;5184691;28;20061;-70
2021/12/07 10:50:15;;;;;;;6.45;1.25;;;8.30;99.90;;;8.47;71.80;100478.84;5185331;28;20085;-69
2021/12/07 10:52:48;;;;;;;5.13;1.42;;;8.30;99.90;;;8.55;71.32;100480.03;5185233;28;20050;-69
2021/12/07 10:55:23;;;;;;;7.35;1.60;;;8.40;99.90;;;8.54;70.83;100480.84;5185022;28;20056;-69
2021/12/07 10:57:58;;;;;;;5.57;1.52;;;8.40;99.90;;;8.52;70.74;100466.91;5184751;28;20045;-70
2021/12/07 11:00:36;;;;;;;6.18;1.77;;;8.40;99.90;;;8.61;70.92;100478.56;5185041;28;20045;-69
2021/12/07 11:03:11;;;;;;;4.68;1.10;;;8.50;99.90;;;8.66;71.10;100484.78;5185080;28;20072;-69
2021/12/07 11:05:46;;;;;;;;;;;8.50;99.90;;;8.73;70.95;100475.50;5188561;28;20414;-70
2021/12/07 11:08:21;;;;;;;5.72;1.55;;;8.60;99.90;;;8.78;70.59;100476.56;5189187;28;20019;-70
2021/12/07 11:10:55;;;;;;;3.45;1.58;;;8.60;99.90;;;8.84;70.38;100474.19;5189431;28;20057;-69
2021/12/07 11:13:35;;;;;;;6.25;2.13;;;8.70;99.90;;;9.09;64.40;100467.28;5189473;28;20562;-71
2021/12/07 11:16:13;;;;;;;4.80;1.30;;;8.80;99.90;;;8.98;64.97;100459.97;5189711;28;20471;-70
2021/12/07 11:18:48;;;;;;;5.85;1.42;;;8.80;99.90;;;8.95;64.67;100457.28;5188901;28;20038;-70
2021/12/07 11:21:21;;;;;;;6.40;1.45;;;8.80;99.90;;;8.89;65.45;100457.06;5189868;28;20046;-71
2021/12/07 11:23:57;;;;;;;4.72;1.20;;;8.80;99.90;;;8.90;65.48;100440.63;5188508;28;20058;-71
2021/12/07 11:29:41;;;;;;;4.13;1.60;;;8.80;99.90;;;8.93;67.02;100425.16;5188484;28;20093;-70
2021/12/07 11:32:13;;;;;;;4.13;1.10;;;8.80;99.90;;;9.13;64.77;100422.38;5188582;28;20054;-70
2021/12/07 11:34:46;;;;;;;2.15;1.02;;;8.80;99.90;;;9.16;64.17;100422.44;5188603;28;20046;-70
2021/12/07 11:37:22;;;;;;;3.03;1.17;;;8.90;99.90;;;9.18;62.92;100415.56;5188588;28;20521;-69
2021/12/07 11:39:56;;;;;;;3.55;1.40;;;8.90;99.80;;;9.12;62.43;100421.44;5264892;23;20045;-70
2021/12/07 11:42:36;;;;;;;4.53;0.90;;;8.90;99.30;;;9.24;62.06;100421.00;5229848;28;20120;-69
2021/12/07 11:45:14;;;;;;;4.57;1.23;;;9.00;99.20;;;9.18;61.47;100420.78;5244035;28;20466;-69
2021/12/07 11:47:49;;;;;;;5.50;1.50;;;9.00;98.60;;;9.17;60.83;100414.69;5250252;28;20119;-69
2021/12/07 11:50:39;;;;;;;3.65;1.38;;;9.00;98.10;;;9.15;60.87;100405.09;5250845;28;20049;-69
2021/12/07 11:53:14;;;;;;;4.15;1.48;;;8.90;98.00;;;9.12;61.24;100402.38;5249734;28;20048;-73
2021/12/07 11:55:49;;;;;;;;;;;8.90;98.10;;;9.61;71.62;100396.22;5250007;28;20071;-69
2021/12/07 11:58:22;;;;;;;5.13;1.67;;;9.40;99.90;;;9.70;60.88;100388.69;5249284;28;20301;-70
2021/12/07 12:00:58;;;;;;;3.30;1.25;;;9.60;98.30;;;9.64;60.37;100397.16;5249267;28;20045;-70
2021/12/07 12:03:30;;;;;;;3.80;1.23;;;9.60;97.40;;;9.47;60.48;100407.06;5249315;28;20568;-70
2021/12/07 12:06:02;;;;;;;3.70;0.95;;;9.50;97.30;;;9.29;60.48;100403.84;5248920;28;20048;-69
2021/12/07 12:08:35;;;;;;;5.57;1.25;;;9.30;97.00;;;9.28;65.33;100412.47;5249145;28;20548;-73